Time,TemperatureF,DewpointF,PressureIn,WindDirection,WindDirectionDegrees,WindSpeedMPH,WindSpeedGustMPH,Humidity,HourlyPrecipIn,Conditions,Clouds,dailyrainin,SoftwareType,DateUTC
2013-09-22 00:02:00,-999.0,-99.9,29.78,North,-999,-999.0,-999.0,-999,-99.99,,,0.00,weatherlink.com 1.10,2013-09-22 04:02:00,
2013-09-22 00:17:00,-999.0,-99.9,29.78,North,-999,-999.0,-999.0,-999,-99.99,,,0.00,weatherlink.com 1.10,2013-09-22 04:17:00,
2013-09-22 00:32:00,-999.0,-99.9,29.77,North,-999,-999.0,-999.0,-999,-99.99,,,0.00,weatherlink.com 1.10,2013-09-22 04:32:00,
2013-09-22 00:47:00,-999.0,-99.9,29.78,North,-999,-999.0,-999.0,-999,-99.99,,,0.00,weatherlink.com 1.10,2013-09-22 04:47:00,
2013-09-22 01:02:00,-999.0,-99.9,29.77,North,-999,-999.0,-999.0,-999,-99.99,,,0.00,weatherlink.com 1.10,2013-09-22 05:02:00,
2013-09-22 01:17:00,-999.0,-99.9,29.77,North,-999,-999.0,-999.0,-999,-99.99,,,0.00,weatherlink.com 1.10,2013-09-22 05:17:00,
2013-09-22 01:32:00,-999.0,-99.9,29.77,North,-999,-999.0,-999.0,-999,-99.99,,,0.00,weatherlink.com 1.10,2013-09-22 05:32:00,
2013-09-22 01:47:00,-999.0,-99.9,29.77,North,-999,-999.0,-999.0,-999,-99.99,,,0.00,weatherlink.com 1.10,2013-09-22 05:47:00,
2013-09-22 02:02:00,-999.0,-99.9,29.77,North,-999,-999.0,-999.0,-999,-99.99,,,0.00,weatherlink.com 1.10,2013-09-22 06:02:00,
2013-09-22 02:17:00,-999.0,-99.9,29.76,North,-999,-999.0,-999.0,-999,-99.99,,,0.00,weatherlink.com 1.10,2013-09-22 06:17:00,
2013-09-22 02:32:00,-999.0,-99.9,29.76,North,-999,-999.0,-999.0,-999,-99.99,,,0.00,weatherlink.com 1.10,2013-09-22 06:32:00,
2013-09-22 02:47:00,-999.0,-99.9,29.75,North,-999,-999.0,-999.0,-999,-99.99,,,0.00,weatherlink.com 1.10,2013-09-22 06:47:00,
2013-09-22 03:02:00,-999.0,-99.9,29.75,North,-999,-999.0,-999.0,-999,-99.99,,,0.00,weatherlink.com 1.10,2013-09-22 07:02:00,
2013-09-22 03:17:00,-999.0,-99.9,29.74,North,-999,-999.0,-999.0,-999,-99.99,,,0.00,weatherlink.com 1.10,2013-09-22 07:17:00,
2013-09-22 03:32:00,-999.0,-99.9,29.75,North,-999,-999.0,-999.0,-999,-99.99,,,0.00,weatherlink.com 1.10,2013-09-22 07:32:00,
2013-09-22 03:47:00,-999.0,-99.9,29.74,North,-999,-999.0,-999.0,-999,-99.99,,,0.00,weatherlink.com 1.10,2013-09-22 07:47:00,
2013-09-22 04:02:00,-999.0,-99.9,29.74,North,-999,-999.0,-999.0,-999,-99.99,,,0.00,weatherlink.com 1.10,2013-09-22 08:02:00,
2013-09-22 04:17:00,-999.0,-99.9,29.74,North,-999,-999.0,-999.0,-999,-99.99,,,0.00,weatherlink.com 1.10,2013-09-22 08:17:00,
2013-09-22 04:32:00,-999.0,-99.9,29.74,North,-999,-999.0,-999.0,-999,-99.99,,,0.00,weatherlink.com 1.10,2013-09-22 08:32:00,
2013-09-22 04:47:00,-999.0,-99.9,29.74,North,-999,-999.0,-999.0,-999,-99.99,,,0.00,weatherlink.com 1.10,2013-09-22 08:47:00,
2013-09-22 05:02:00,-999.0,-99.9,29.74,North,-999,-999.0,-999.0,-999,-99.99,,,0.00,weatherlink.com 1.10,2013-09-22 09:02:00,
2013-09-22 05:17:00,-999.0,-99.9,29.74,North,-999,-999.0,-999.0,-999,-99.99,,,0.00,weatherlink.com 1.10,2013-09-22 09:17:00,
2013-09-22 05:32:00,-999.0,-99.9,29.74,North,-999,-999.0,-999.0,-999,-99.99,,,0.00,weatherlink.com 1.10,2013-09-22 09:32:00,
2013-09-22 05:47:00,-999.0,-99.9,29.74,North,-999,-999.0,-999.0,-999,-99.99,,,0.00,weatherlink.com 1.10,2013-09-22 09:47:00,
2013-09-22 06:02:00,-999.0,-99.9,29.75,North,-999,-999.0,-999.0,-999,-99.99,,,0.00,weatherlink.com 1.10,2013-09-22 10:02:00,
2013-09-22 06:17:00,-999.0,-99.9,29.75,North,-999,-999.0,-999.0,-999,-99.99,,,0.00,weatherlink.com 1.10,2013-09-22 10:17:00,
2013-09-22 06:32:00,-999.0,-99.9,29.75,North,-999,-999.0,-999.0,-999,-99.99,,,0.00,weatherlink.com 1.10,2013-09-22 10:32:00,
2013-09-22 06:47:00,-999.0,-99.9,29.76,North,-999,-999.0,-999.0,-999,-99.99,,,0.00,weatherlink.com 1.10,2013-09-22 10:47:00,
2013-09-22 07:02:00,-999.0,-99.9,29.76,North,-999,-999.0,-999.0,-999,-99.99,,,0.00,weatherlink.com 1.10,2013-09-22 11:02:00,
2013-09-22 07:17:00,-999.0,-99.9,29.76,North,-999,-999.0,-999.0,-999,-99.99,,,0.00,weatherlink.com 1.10,2013-09-22 11:17:00,
2013-09-22 07:32:00,-999.0,-99.9,29.77,North,-999,-999.0,-999.0,-999,-99.99,,,0.00,weatherlink.com 1.10,2013-09-22 11:32:00,
2013-09-22 07:47:00,-999.0,-99.9,29.77,North,-999,-999.0,-999.0,-999,-99.99,,,0.00,weatherlink.com 1.10,2013-09-22 11:47:00,
2013-09-22 08:02:00,-999.0,-99.9,29.77,North,-999,-999.0,-999.0,-999,-99.99,,,0.00,weatherlink.com 1.10,2013-09-22 12:02:00,
2013-09-22 08:17:00,-999.0,-99.9,29.78,North,-999,-999.0,-999.0,-999,-99.99,,,0.00,weatherlink.com 1.10,2013-09-22 12:17:00,
2013-09-22 08:32:00,-999.0,-99.9,29.78,North,-999,-999.0,-999.0,-999,-99.99,,,0.00,weatherlink.com 1.10,2013-09-22 12:32:00,
2013-09-22 08:47:00,-999.0,-99.9,29.78,North,-999,-999.0,-999.0,-999,-99.99,,,0.00,weatherlink.com 1.10,2013-09-22 12:47:00,
2013-09-22 09:02:00,80.3,77.0,29.78,South,180,4.0,-999.0,88,-99.99,,,0.00,weatherlink.com 1.10,2013-09-22 13:02:00,
2013-09-22 09:17:00,81.8,77.0,29.79,SSE,162,3.0,-999.0,84,-99.99,,,0.00,weatherlink.com 1.10,2013-09-22 13:17:00,
2013-09-22 09:32:00,82.6,76.0,29.79,South,174,3.0,-999.0,81,-99.99,,,0.00,weatherlink.com 1.10,2013-09-22 13:32:00,
2013-09-22 09:47:00,83.6,76.0,29.79,SSE,148,5.0,-999.0,78,-99.99,,,0.00,weatherlink.com 1.10,2013-09-22 13:47:00,
2013-09-22 10:02:00,84.9,77.0,29.79,SW,219,1.0,-999.0,78,-99.99,,,0.00,weatherlink.com 1.10,2013-09-22 14:02:00,
2013-09-22 10:17:00,84.9,77.0,29.79,South,190,4.0,-999.0,76,-99.99,,,0.00,weatherlink.com 1.10,2013-09-22 14:17:00,
2013-09-22 10:32:00,84.3,76.0,29.80,SSW,192,5.0,-999.0,77,-99.99,,,0.00,weatherlink.com 1.10,2013-09-22 14:32:00,
2013-09-22 10:47:00,85.3,76.0,29.80,SSE,157,12.0,-999.0,74,-99.99,,,0.00,weatherlink.com 1.10,2013-09-22 14:47:00,
2013-09-22 11:02:00,84.0,76.0,29.80,SSE,161,2.0,-999.0,77,-99.99,,,0.01,weatherlink.com 1.10,2013-09-22 15:02:00,
2013-09-22 11:17:00,84.3,78.0,29.80,SE,137,4.0,-999.0,81,-99.99,,,0.01,weatherlink.com 1.10,2013-09-22 15:17:00,
2013-09-22 11:32:00,86.1,78.0,29.79,SSE,161,4.0,-999.0,76,-99.99,,,0.01,weatherlink.com 1.10,2013-09-22 15:32:00,
2013-09-22 11:47:00,86.7,74.0,29.79,SSE,168,9.0,-999.0,67,-99.99,,,0.01,weatherlink.com 1.10,2013-09-22 15:47:00,
2013-09-22 12:02:00,87.4,75.0,29.78,SSW,199,11.0,-999.0,66,-99.99,,,0.01,weatherlink.com 1.10,2013-09-22 16:02:00,
2013-09-22 12:17:00,87.6,75.0,29.79,SSE,163,9.0,-999.0,66,-99.99,,,0.01,weatherlink.com 1.10,2013-09-22 16:17:00,
2013-09-22 12:32:00,88.0,75.0,29.78,SSE,154,9.0,-999.0,65,-99.99,,,0.01,weatherlink.com 1.10,2013-09-22 16:32:00,
2013-09-22 12:47:00,88.8,75.0,29.78,SSE,168,8.0,-999.0,63,-99.99,,,0.01,weatherlink.com 1.10,2013-09-22 16:47:00,
2013-09-22 13:02:00,89.3,75.0,29.78,SE,126,3.0,-999.0,62,-99.99,,,0.01,weatherlink.com 1.10,2013-09-22 17:02:00,
2013-09-22 13:17:00,89.7,74.0,29.77,SE,134,9.0,-999.0,61,-99.99,,,0.01,weatherlink.com 1.10,2013-09-22 17:17:00,
2013-09-22 13:32:00,90.5,73.0,29.77,SSE,151,4.0,-999.0,57,-99.99,,,0.01,weatherlink.com 1.10,2013-09-22 17:32:00,
2013-09-22 13:47:00,90.3,74.0,29.76,SE,126,13.0,-999.0,58,-99.99,,,0.01,weatherlink.com 1.10,2013-09-22 17:47:00,
2013-09-22 14:02:00,91.2,74.0,29.76,South,171,5.0,-999.0,57,-99.99,,,0.01,weatherlink.com 1.10,2013-09-22 18:02:00,
2013-09-22 14:17:00,90.3,76.0,29.76,SSE,163,5.0,-999.0,62,-99.99,,,0.01,weatherlink.com 1.10,2013-09-22 18:17:00,
2013-09-22 14:32:00,89.3,76.0,29.75,SE,140,6.0,-999.0,65,-99.99,,,0.01,weatherlink.com 1.10,2013-09-22 18:32:00,
2013-09-22 14:47:00,88.4,77.0,29.75,SE,145,4.0,-999.0,68,-99.99,,,0.01,weatherlink.com 1.10,2013-09-22 18:47:00,
2013-09-22 15:02:00,88.8,77.0,29.74,SE,144,10.0,-999.0,68,-99.99,,,0.01,weatherlink.com 1.10,2013-09-22 19:02:00,
2013-09-22 15:17:00,90.3,76.0,29.74,SE,143,2.0,-999.0,63,-99.99,,,0.01,weatherlink.com 1.10,2013-09-22 19:17:00,
2013-09-22 15:32:00,88.4,77.0,29.73,SSE,154,4.0,-999.0,69,-99.99,,,0.01,weatherlink.com 1.10,2013-09-22 19:32:00,
2013-09-22 15:47:00,88.0,77.0,29.73,SSE,155,9.0,-999.0,70,-99.99,,,0.01,weatherlink.com 1.10,2013-09-22 19:47:00,
2013-09-22 16:02:00,-999.0,-99.9,29.76,North,-999,-999.0,-999.0,-999,-99.99,,,0.01,weatherlink.com 1.10,2013-09-22 20:02:00,
2013-09-22 16:17:00,78.6,74.0,29.75,SSE,155,0.0,-999.0,85,-99.99,,,0.06,weatherlink.com 1.10,2013-09-22 20:17:00,
2013-09-22 16:32:00,81.2,77.0,29.73,SSE,157,3.0,-999.0,87,-99.99,,,0.06,weatherlink.com 1.10,2013-09-22 20:32:00,
2013-09-22 16:47:00,82.8,78.0,29.72,SSE,167,1.0,-999.0,84,-99.99,,,0.06,weatherlink.com 1.10,2013-09-22 20:47:00,
2013-09-22 17:02:00,83.2,78.0,29.72,SSE,157,0.0,-999.0,83,-99.99,,,0.06,weatherlink.com 1.10,2013-09-22 21:02:00,
2013-09-22 17:17:00,84.0,77.0,29.73,SSE,152,6.0,-999.0,80,-99.99,,,0.06,weatherlink.com 1.10,2013-09-22 21:17:00,
2013-09-22 17:32:00,84.5,77.0,29.73,SSE,151,0.0,-999.0,79,-99.99,,,0.06,weatherlink.com 1.10,2013-09-22 21:32:00,
2013-09-22 17:47:00,84.3,77.0,29.73,SSE,159,7.0,-999.0,79,-99.99,,,0.06,weatherlink.com 1.10,2013-09-22 21:47:00,
2013-09-22 18:02:00,84.9,78.0,29.74,SE,143,0.0,-999.0,79,-99.99,,,0.07,weatherlink.com 1.10,2013-09-22 22:02:00,
2013-09-22 18:17:00,84.3,78.0,29.74,SE,142,0.0,-999.0,81,-99.99,,,0.07,weatherlink.com 1.10,2013-09-22 22:17:00,
2013-09-22 18:32:00,84.1,78.0,29.74,SE,142,0.0,-999.0,81,-99.99,,,0.07,weatherlink.com 1.10,2013-09-22 22:32:00,
2013-09-22 18:47:00,-999.0,-99.9,29.75,North,-999,-999.0,-999.0,-999,-99.99,,,0.07,weatherlink.com 1.10,2013-09-22 22:47:00,
2013-09-22 19:02:00,-999.0,-99.9,29.75,North,-999,-999.0,-999.0,-999,-99.99,,,0.07,weatherlink.com 1.10,2013-09-22 23:02:00,
2013-09-22 19:17:00,-999.0,-99.9,29.76,North,-999,-999.0,-999.0,-999,-99.99,,,0.07,weatherlink.com 1.10,2013-09-22 23:17:00,
2013-09-22 19:32:00,-999.0,-99.9,29.77,North,-999,-999.0,-999.0,-999,-99.99,,,0.07,weatherlink.com 1.10,2013-09-22 23:32:00,
2013-09-22 19:47:00,-999.0,-99.9,29.77,North,-999,-999.0,-999.0,-999,-99.99,,,0.07,weatherlink.com 1.10,2013-09-22 23:47:00,
2013-09-22 20:02:00,-999.0,-99.9,29.77,North,-999,-999.0,-999.0,-999,-99.99,,,0.07,weatherlink.com 1.10,2013-09-23 00:02:00,
2013-09-22 20:17:00,-999.0,-99.9,29.77,North,-999,-999.0,-999.0,-999,-99.99,,,0.07,weatherlink.com 1.10,2013-09-23 00:17:00,
2013-09-22 20:32:00,-999.0,-99.9,29.78,North,-999,-999.0,-999.0,-999,-99.99,,,0.07,weatherlink.com 1.10,2013-09-23 00:32:00,
2013-09-22 20:47:00,-999.0,-99.9,29.78,North,-999,-999.0,-999.0,-999,-99.99,,,0.07,weatherlink.com 1.10,2013-09-23 00:47:00,
2013-09-22 21:02:00,-999.0,-99.9,29.79,North,-999,-999.0,-999.0,-999,-99.99,,,0.07,weatherlink.com 1.10,2013-09-23 01:02:00,
2013-09-22 21:17:00,-999.0,-99.9,29.79,North,-999,-999.0,-999.0,-999,-99.99,,,0.07,weatherlink.com 1.10,2013-09-23 01:17:00,
2013-09-22 21:32:00,-999.0,-99.9,29.80,North,-999,-999.0,-999.0,-999,-99.99,,,0.07,weatherlink.com 1.10,2013-09-23 01:32:00,
2013-09-22 21:47:00,-999.0,-99.9,29.80,North,-999,-999.0,-999.0,-999,-99.99,,,0.07,weatherlink.com 1.10,2013-09-23 01:47:00,
2013-09-22 22:02:00,-999.0,-99.9,29.81,North,-999,-999.0,-999.0,-999,-99.99,,,0.07,weatherlink.com 1.10,2013-09-23 02:02:00,
2013-09-22 22:17:00,-999.0,-99.9,29.81,North,-999,-999.0,-999.0,-999,-99.99,,,0.07,weatherlink.com 1.10,2013-09-23 02:17:00,
2013-09-22 22:32:00,-999.0,-99.9,29.82,North,-999,-999.0,-999.0,-999,-99.99,,,0.07,weatherlink.com 1.10,2013-09-23 02:32:00,
2013-09-22 22:47:00,-999.0,-99.9,29.82,North,-999,-999.0,-999.0,-999,-99.99,,,0.07,weatherlink.com 1.10,2013-09-23 02:47:00,
2013-09-22 23:02:00,-999.0,-99.9,29.82,North,-999,-999.0,-999.0,-999,-99.99,,,0.07,weatherlink.com 1.10,2013-09-23 03:02:00,
2013-09-22 23:17:00,-999.0,-99.9,29.82,North,-999,-999.0,-999.0,-999,-99.99,,,0.07,weatherlink.com 1.10,2013-09-23 03:17:00,
2013-09-22 23:32:00,-999.0,-99.9,29.82,North,-999,-999.0,-999.0,-999,-99.99,,,0.07,weatherlink.com 1.10,2013-09-23 03:32:00,
2013-09-22 23:47:00,-999.0,-99.9,29.83,North,-999,-999.0,-999.0,-999,-99.99,,,0.00,weatherlink.com 1.10,2013-09-23 03:47:00,